createdAt,value
2017-12-04T00:01:10.587Z,12.50
2017-12-04T00:03:38.086Z,12.57
2017-12-04T00:06:05.607Z,14.20
2017-12-04T00:08:33.110Z,13.13
2017-12-04T00:11:00.662Z,13.00
2017-12-04T00:13:28.914Z,13.80
2017-12-04T00:15:56.430Z,13.60
2017-12-04T00:18:23.926Z,11.50
2017-12-04T00:20:51.427Z,12.90
2017-12-04T00:23:18.951Z,14.40
2017-12-04T00:25:47.215Z,14.60
2017-12-04T00:28:14.739Z,12.93
2017-12-04T00:30:42.247Z,13.73
2017-12-04T00:33:10.535Z,12.80
2017-12-04T00:35:38.805Z,12.80
2017-12-04T00:38:07.108Z,12.73
2017-12-04T00:40:34.612Z,12.60
2017-12-04T00:43:02.118Z,13.03
2017-12-04T00:45:29.644Z,12.40
2017-12-04T00:47:57.146Z,12.67
2017-12-04T00:50:24.666Z,11.83
2017-12-04T00:52:52.930Z,12.40
2017-12-04T00:55:20.455Z,12.27
2017-12-04T00:57:47.955Z,11.83
2017-12-04T01:00:15.455Z,12.93
2017-12-04T01:02:42.982Z,12.03
2017-12-04T01:05:11.243Z,11.70
2017-12-04T01:07:38.758Z,14.30
2017-12-04T01:10:06.259Z,13.40
2017-12-04T01:12:33.758Z,12.17
2017-12-04T01:15:01.285Z,13.77
2017-12-04T01:17:29.555Z,12.63
2017-12-04T01:19:57.078Z,12.83
2017-12-04T01:22:24.579Z,13.30
2017-12-04T01:24:52.870Z,12.27
2017-12-04T01:27:21.142Z,11.80
2017-12-04T01:29:49.410Z,13.77
2017-12-04T01:32:17.695Z,12.33
2017-12-04T01:34:45.963Z,13.03
2017-12-04T01:37:14.250Z,12.80
2017-12-04T01:39:42.511Z,13.83
2017-12-04T01:42:10.803Z,12.77
2017-12-04T01:44:39.070Z,13.10
2017-12-04T01:47:07.343Z,11.70
2017-12-04T01:49:35.638Z,12.00
2017-12-04T01:52:03.142Z,12.13
2017-12-04T01:54:30.662Z,11.17
2017-12-04T01:56:58.163Z,12.03
2017-12-04T01:59:25.684Z,12.23
2017-12-04T02:01:53.186Z,13.07
2017-12-04T02:04:20.706Z,13.17
2017-12-04T02:09:38.886Z,14.30
2017-12-04T02:12:06.374Z,12.40
2017-12-04T02:14:35.402Z,12.90
2017-12-04T02:17:02.898Z,13.30
2017-12-04T02:19:30.410Z,12.73
2017-12-04T02:21:58.670Z,12.63
2017-12-04T02:24:26.182Z,13.17
2017-12-04T02:26:53.682Z,13.00
2017-12-04T02:29:21.198Z,13.00
2017-12-04T02:31:48.690Z,13.83
2017-12-04T02:34:16.214Z,13.70
2017-12-04T02:36:43.706Z,14.00
2017-12-04T02:39:11.222Z,14.33
2017-12-04T02:41:38.714Z,14.07
2017-12-04T02:44:06.231Z,15.23
2017-12-04T02:46:33.725Z,14.57
2017-12-04T02:49:01.238Z,13.97
2017-12-04T02:51:28.788Z,14.50
2017-12-04T02:53:56.300Z,14.90
2017-12-04T02:56:23.794Z,13.57
2017-12-04T02:58:52.084Z,13.67
2017-12-04T03:01:20.351Z,13.90
2017-12-04T03:03:48.630Z,13.57
2017-12-04T03:06:16.886Z,13.57
2017-12-04T03:08:44.402Z,13.50
2017-12-04T03:11:11.894Z,16.00
2017-12-04T03:13:39.415Z,13.17
2017-12-04T03:16:06.910Z,13.03
2017-12-04T03:18:34.426Z,14.60
2017-12-04T03:21:01.922Z,14.77
2017-12-04T03:23:29.450Z,13.50
2017-12-04T03:25:56.942Z,15.40
2017-12-04T03:28:24.468Z,13.73
2017-12-04T03:30:51.967Z,14.23
2017-12-04T03:33:19.498Z,13.67
2017-12-04T03:35:46.999Z,14.03
2017-12-04T03:38:15.288Z,12.90
2017-12-04T03:40:43.550Z,13.00
2017-12-04T03:43:11.841Z,13.83
2017-12-04T03:45:40.100Z,13.33
2017-12-04T03:48:07.618Z,12.80
2017-12-04T03:50:35.117Z,12.70
2017-12-04T03:53:02.630Z,12.90
2017-12-04T03:55:30.123Z,12.03
2017-12-04T03:57:57.668Z,12.50
2017-12-04T04:00:25.160Z,12.13
2017-12-04T04:02:53.442Z,13.27
2017-12-04T04:05:21.702Z,14.37
2017-12-04T04:07:49.982Z,12.93
2017-12-04T04:10:18.238Z,12.90
2017-12-04T04:12:45.750Z,14.20
2017-12-04T04:15:13.248Z,14.60
2017-12-04T04:17:40.762Z,13.83
2017-12-04T04:20:08.253Z,13.93
2017-12-04T04:22:35.774Z,13.27
2017-12-04T04:25:03.276Z,15.10
2017-12-04T04:27:30.797Z,14.40
2017-12-04T04:29:58.289Z,14.20
2017-12-04T04:32:25.802Z,13.87
2017-12-04T04:34:54.057Z,14.73
2017-12-04T04:37:21.570Z,15.30
2017-12-04T04:39:49.070Z,15.00
2017-12-04T04:42:16.582Z,15.53
2017-12-04T04:44:44.076Z,15.87
2017-12-04T04:47:11.594Z,59.07
2017-12-04T04:49:39.086Z,18.33
2017-12-04T04:52:06.598Z,16.27
2017-12-04T04:54:34.089Z,16.80
2017-12-04T04:57:01.601Z,16.27
2017-12-04T04:59:29.857Z,16.10
2017-12-04T05:01:58.142Z,17.00
2017-12-04T05:04:26.406Z,16.83
2017-12-04T05:06:53.926Z,16.27
2017-12-04T05:09:21.414Z,15.00
2017-12-04T05:11:48.925Z,17.03
2017-12-04T05:14:16.418Z,16.57
2017-12-04T05:16:43.926Z,17.50
2017-12-04T05:19:11.429Z,16.70
2017-12-04T05:21:38.937Z,14.73
2017-12-04T05:24:07.199Z,17.07
2017-12-04T05:26:35.478Z,15.73
2017-12-04T05:29:03.738Z,16.60
2017-12-04T05:31:31.249Z,14.70
2017-12-04T05:33:58.742Z,15.10
2017-12-04T05:36:26.262Z,13.60
2017-12-04T05:38:53.754Z,14.80
2017-12-04T05:41:21.265Z,12.93
2017-12-04T05:43:48.753Z,12.90
2017-12-04T05:46:16.269Z,14.03
2017-12-04T05:48:44.531Z,14.50
2017-12-04T05:51:12.811Z,13.50
2017-12-04T05:53:41.079Z,14.17
2017-12-04T05:56:09.374Z,14.60
2017-12-04T05:58:37.633Z,13.37
2017-12-04T06:01:05.918Z,13.93
2017-12-04T06:03:34.174Z,13.63
2017-12-04T06:06:01.672Z,12.77
2017-12-04T06:08:29.186Z,13.10
2017-12-04T06:10:56.678Z,12.73
2017-12-04T06:13:24.960Z,12.37
2017-12-04T06:15:52.450Z,12.63
2017-12-04T06:18:19.966Z,12.03
2017-12-04T06:20:48.222Z,13.00
2017-12-04T06:23:15.734Z,10.50
2017-12-04T06:25:43.220Z,10.90
2017-12-04T06:28:10.730Z,11.00
2017-12-04T06:30:38.221Z,12.13
2017-12-04T06:33:05.738Z,10.53
2017-12-04T06:35:33.995Z,11.33
2017-12-04T06:38:01.510Z,11.50
2017-12-04T06:40:29.003Z,13.03
2017-12-04T06:42:57.294Z,12.90
2017-12-04T06:45:25.550Z,12.43
2017-12-04T06:47:53.072Z,12.93
2017-12-04T06:50:20.561Z,11.87
2017-12-04T06:52:48.079Z,13.13
2017-12-04T06:55:15.574Z,13.53
2017-12-04T06:57:43.090Z,13.50
2017-12-04T07:00:10.596Z,13.20
2017-12-04T07:02:38.111Z,13.20
2017-12-04T07:05:05.597Z,13.50
2017-12-04T07:07:33.105Z,13.43
2017-12-04T07:10:01.358Z,13.13
2017-12-04T07:12:28.871Z,13.10
2017-12-04T07:14:56.362Z,13.30
2017-12-04T07:17:23.877Z,12.90
2017-12-04T07:19:51.369Z,12.00
2017-12-04T07:22:18.882Z,13.80
2017-12-04T07:24:46.373Z,13.70
2017-12-04T07:27:13.885Z,13.20
2017-12-04T07:29:42.138Z,11.57
2017-12-04T07:32:09.650Z,11.60
2017-12-04T07:34:37.148Z,10.77
2017-12-04T07:37:04.666Z,12.40
2017-12-04T07:39:32.153Z,12.37
2017-12-04T07:41:59.666Z,11.77
2017-12-04T07:44:27.171Z,10.70
2017-12-04T07:46:54.690Z,11.13
2017-12-04T07:49:22.181Z,11.87
2017-12-04T07:51:49.693Z,11.60
2017-12-04T07:54:17.947Z,9.83
2017-12-04T07:56:45.462Z,10.27
2017-12-04T07:59:12.970Z,11.30
2017-12-04T08:01:41.246Z,9.90
2017-12-04T08:04:09.503Z,10.20
2017-12-04T08:06:37.014Z,11.30
2017-12-04T08:09:04.510Z,10.53
2017-12-04T08:11:32.026Z,11.40
2017-12-04T08:13:59.517Z,12.00
2017-12-04T08:16:27.029Z,12.33
2017-12-04T08:18:55.286Z,11.87
2017-12-04T08:21:22.800Z,13.00
2017-12-04T08:23:51.255Z,11.93
2017-12-04T08:26:18.769Z,12.27
2017-12-04T08:28:46.262Z,12.60
2017-12-04T08:31:13.778Z,11.10
2017-12-04T08:33:41.266Z,10.63
2017-12-04T08:36:09.541Z,12.53
2017-12-04T08:38:37.798Z,11.40
2017-12-04T08:41:05.313Z,10.33
2017-12-04T08:43:32.808Z,10.20
2017-12-04T08:46:00.321Z,11.43
2017-12-04T08:48:27.813Z,12.27
2017-12-04T08:50:55.326Z,11.63
2017-12-04T08:53:22.814Z,12.00
2017-12-04T08:55:50.326Z,12.87
2017-12-04T08:58:18.582Z,13.50
2017-12-04T09:00:46.857Z,12.50
2017-12-04T09:03:14.349Z,12.00
2017-12-04T09:05:42.625Z,12.73
2017-12-04T09:08:10.881Z,10.97
2017-12-04T09:10:38.398Z,11.27
2017-12-04T09:13:05.885Z,12.50
2017-12-04T09:15:34.133Z,12.57
2017-12-04T09:18:01.645Z,11.10
2017-12-04T09:20:29.922Z,13.13
2017-12-04T09:22:58.182Z,11.83
2017-12-04T09:25:25.694Z,11.80
2017-12-04T09:27:53.189Z,11.30
2017-12-04T09:30:20.702Z,12.13
2017-12-04T09:32:48.208Z,12.20
2017-12-04T09:35:15.723Z,11.37
2017-12-04T09:37:43.213Z,11.03
2017-12-04T09:40:10.738Z,10.27
2017-12-04T09:42:38.226Z,9.30
2017-12-04T09:45:05.738Z,10.30
2017-12-04T09:47:33.226Z,9.97
2017-12-04T09:50:00.757Z,11.27
2017-12-04T09:52:28.249Z,10.90
2017-12-04T09:54:55.774Z,11.10
2017-12-04T09:57:23.262Z,10.53
2017-12-04T09:59:50.773Z,10.77
2017-12-04T10:02:19.026Z,10.60
2017-12-04T10:04:46.546Z,10.93
2017-12-04T10:07:14.042Z,10.60
2017-12-04T10:09:41.553Z,11.13
2017-12-04T10:12:09.050Z,9.90
2017-12-04T10:14:36.618Z,9.20
2017-12-04T10:17:04.106Z,10.03
2017-12-04T10:19:32.381Z,9.30
2017-12-04T10:22:00.759Z,8.67
2017-12-04T10:24:29.074Z,9.10
2017-12-04T10:26:56.546Z,9.40
2017-12-04T10:29:24.035Z,9.03
2017-12-04T10:31:52.309Z,9.50
2017-12-04T10:34:19.799Z,8.50
2017-12-04T10:36:47.305Z,9.60
2017-12-04T10:39:14.794Z,9.10
2017-12-04T10:41:43.071Z,9.70
2017-12-04T10:44:11.331Z,8.70
2017-12-04T10:46:38.846Z,8.43
2017-12-04T10:49:06.334Z,7.50
2017-12-04T10:51:33.841Z,9.50
2017-12-04T10:54:01.326Z,8.13
2017-12-04T10:56:28.837Z,8.43
2017-12-04T10:58:57.094Z,8.90
2017-12-04T11:01:24.602Z,9.40
2017-12-04T11:03:52.089Z,8.40
2017-12-04T11:06:19.598Z,8.50
2017-12-04T11:08:47.850Z,8.57
2017-12-04T11:11:15.366Z,9.20
2017-12-04T11:13:42.854Z,9.10
2017-12-04T11:16:10.362Z,8.10
2017-12-04T11:18:37.854Z,8.60
2017-12-04T11:21:05.376Z,8.47
2017-12-04T11:23:32.862Z,8.17
2017-12-04T11:26:00.371Z,7.63
2017-12-04T11:28:28.623Z,8.07
2017-12-04T11:30:56.129Z,6.87
2017-12-04T11:33:23.618Z,7.33
2017-12-04T11:35:51.126Z,7.50
2017-12-04T11:38:19.373Z,6.87
2017-12-04T11:40:46.886Z,7.30
2017-12-04T11:43:14.374Z,7.00
2017-12-04T11:45:41.886Z,7.43
2017-12-04T11:48:09.371Z,7.87
2017-12-04T11:50:36.881Z,8.20
2017-12-04T11:53:05.133Z,8.23
2017-12-04T11:55:32.642Z,8.13
2017-12-04T11:58:00.137Z,9.10
2017-12-04T12:00:27.652Z,7.70
2017-12-04T12:02:55.161Z,8.60
2017-12-04T12:05:22.670Z,7.30
2017-12-04T12:07:50.162Z,7.30
2017-12-04T12:10:17.669Z,7.20
2017-12-04T12:12:45.921Z,7.00
2017-12-04T12:15:14.219Z,6.60
2017-12-04T12:17:42.473Z,7.80
2017-12-04T12:22:43.538Z,8.07
2017-12-04T12:25:11.073Z,8.40
2017-12-04T12:27:38.566Z,8.40
2017-12-04T12:30:06.843Z,7.97
2017-12-04T12:32:35.098Z,8.33
2017-12-04T12:35:02.606Z,7.60
2017-12-04T12:37:30.094Z,7.57
2017-12-04T12:39:57.606Z,6.87
2017-12-04T12:42:25.862Z,7.70
2017-12-04T12:44:53.374Z,7.73
2017-12-04T12:47:20.866Z,7.70
2017-12-04T12:49:48.373Z,7.50
2017-12-04T12:52:15.861Z,8.57
2017-12-04T12:54:43.365Z,8.37
2017-12-04T12:57:11.679Z,7.53
2017-12-04T12:59:39.913Z,7.60
2017-12-04T13:02:08.170Z,8.47
2017-12-04T13:04:35.682Z,7.47
2017-12-04T13:07:03.180Z,7.83
2017-12-04T13:09:30.689Z,7.30
2017-12-04T13:11:58.169Z,7.77
2017-12-04T13:14:25.677Z,7.43
2017-12-04T13:16:53.157Z,7.00
2017-12-04T13:19:21.435Z,8.63
2017-12-04T13:21:48.917Z,7.27
2017-12-04T13:24:16.438Z,7.30
2017-12-04T13:26:43.930Z,7.40
2017-12-04T13:29:11.437Z,6.97
2017-12-04T13:31:38.930Z,7.80
2017-12-04T13:34:18.301Z,8.10
2017-12-04T13:36:51.463Z,8.47
2017-12-04T13:39:18.974Z,7.00
2017-12-04T13:41:46.466Z,7.00
2017-12-04T13:44:14.742Z,7.37
2017-12-04T13:46:42.231Z,7.07
2017-12-04T13:49:09.742Z,7.83
2017-12-04T13:51:37.994Z,7.57
2017-12-04T13:54:05.506Z,6.43
2017-12-04T13:56:33.002Z,8.40
2017-12-04T13:59:00.506Z,7.80
2017-12-04T14:01:28.763Z,7.80
2017-12-04T14:03:56.278Z,8.70
2017-12-04T14:06:23.763Z,7.30
2017-12-04T14:08:51.270Z,7.93
2017-12-04T14:11:18.757Z,8.10
2017-12-04T14:13:46.313Z,8.30
2017-12-04T14:16:13.774Z,8.83
2017-12-04T14:18:41.283Z,9.27
2017-12-04T14:21:09.538Z,9.17
2017-12-04T14:23:37.813Z,8.43
2017-12-04T14:26:05.302Z,7.93
2017-12-04T14:28:33.582Z,7.40
2017-12-04T14:31:01.837Z,8.30
2017-12-04T14:33:30.114Z,8.77
2017-12-04T14:35:58.365Z,8.10
2017-12-04T14:38:25.877Z,8.40
2017-12-04T14:40:53.371Z,8.30
2017-12-04T14:43:20.895Z,8.77
2017-12-04T14:45:48.380Z,8.37
2017-12-04T14:48:15.890Z,9.03
2017-12-04T14:50:44.145Z,8.20
2017-12-04T14:53:12.422Z,8.77
2017-12-04T14:55:39.915Z,8.77
2017-12-04T14:58:07.425Z,8.83
2017-12-04T15:00:34.918Z,8.33
2017-12-04T15:03:03.198Z,9.00
2017-12-04T15:05:31.458Z,9.40
2017-12-04T15:07:59.718Z,10.10
2017-12-04T15:10:28.735Z,9.63
2017-12-04T15:12:56.990Z,8.50
2017-12-04T15:15:24.498Z,9.13
2017-12-04T15:17:51.993Z,10.30
2017-12-04T15:20:24.310Z,9.50
2017-12-04T15:22:52.571Z,9.70
2017-12-04T15:25:20.850Z,10.27
2017-12-04T15:27:49.106Z,10.03
2017-12-04T15:30:16.622Z,10.03
2017-12-04T15:32:44.110Z,10.27
2017-12-04T15:35:11.631Z,10.33
2017-12-04T15:37:39.130Z,10.63
2017-12-04T15:40:06.642Z,9.77
2017-12-04T15:42:34.138Z,10.57
2017-12-04T15:45:01.654Z,10.70
2017-12-04T15:47:29.149Z,11.17
2017-12-04T15:49:56.665Z,11.33
2017-12-04T15:52:24.921Z,11.20
2017-12-04T15:54:53.198Z,12.27
2017-12-04T15:57:21.461Z,11.07
2017-12-04T15:59:48.973Z,11.40
2017-12-04T16:02:16.467Z,14.23
2017-12-04T16:04:43.982Z,12.20
2017-12-04T16:07:11.473Z,12.50
2017-12-04T16:09:38.987Z,11.77
2017-12-04T16:12:06.477Z,12.00
2017-12-04T16:14:33.993Z,13.07
2017-12-04T16:17:02.253Z,11.73
2017-12-04T16:19:29.766Z,12.30
2017-12-04T16:21:57.254Z,11.70
2017-12-04T16:24:24.766Z,12.67
2017-12-04T16:26:52.259Z,13.27
2017-12-04T16:29:19.778Z,13.30
2017-12-04T16:31:47.282Z,13.30
2017-12-04T16:34:14.799Z,12.90
2017-12-04T16:36:42.302Z,11.77
2017-12-04T16:39:09.821Z,12.90
2017-12-04T16:41:37.310Z,12.40
2017-12-04T16:44:04.821Z,13.27
2017-12-04T16:46:32.314Z,13.10
2017-12-04T16:49:00.274Z,12.60
2017-12-04T16:51:27.770Z,13.87
2017-12-04T16:53:55.281Z,13.60
2017-12-04T16:56:22.778Z,13.97
2017-12-04T16:58:50.289Z,12.87
2017-12-04T17:01:17.786Z,14.33
2017-12-04T17:03:45.306Z,13.80
2017-12-04T17:06:12.798Z,13.50
2017-12-04T17:08:40.317Z,14.00
2017-12-04T17:11:07.817Z,13.80
2017-12-04T17:13:35.332Z,15.70
2017-12-04T17:16:02.826Z,14.03
2017-12-04T17:18:30.342Z,12.50
2017-12-04T17:20:58.597Z,13.23
2017-12-04T17:23:26.874Z,14.50
2017-12-04T17:25:54.361Z,14.33
2017-12-04T17:28:21.879Z,12.70
2017-12-04T17:30:49.370Z,14.43
2017-12-04T17:33:17.645Z,13.17
2017-12-04T17:35:45.138Z,15.10
2017-12-04T17:38:12.653Z,13.43
2017-12-04T17:40:40.141Z,12.77
2017-12-04T17:43:07.629Z,14.10
2017-12-04T17:45:35.150Z,14.10
2017-12-04T17:48:02.649Z,14.07
2017-12-04T17:50:30.161Z,13.17
2017-12-04T17:52:57.649Z,13.20
2017-12-04T17:55:25.162Z,13.40
2017-12-04T17:57:53.422Z,13.03
2017-12-04T18:00:20.954Z,13.50
2017-12-04T18:02:48.445Z,13.83
2017-12-04T18:05:16.721Z,13.47
2017-12-04T18:07:44.977Z,14.10
2017-12-04T18:10:12.490Z,14.80
2017-12-04T18:12:40.003Z,14.80
2017-12-04T18:15:07.522Z,14.77
2017-12-04T18:17:35.013Z,14.03
2017-12-04T18:20:02.526Z,13.70
2017-12-04T18:22:30.073Z,14.93
2017-12-04T18:24:58.318Z,14.80
2017-12-04T18:27:27.319Z,15.80
2017-12-04T18:29:55.598Z,14.43
2017-12-04T18:32:23.858Z,14.80
2017-12-04T18:34:51.371Z,15.90
2017-12-04T18:37:18.862Z,14.93
2017-12-04T18:39:46.380Z,15.30
2017-12-04T18:42:13.874Z,13.63
2017-12-04T18:44:41.386Z,13.67
2017-12-04T18:47:08.893Z,13.43
2017-12-04T18:49:36.425Z,27.13
2017-12-04T18:52:03.918Z,14.27
2017-12-04T18:54:31.434Z,14.00
2017-12-04T18:56:58.929Z,14.57
2017-12-04T18:59:26.438Z,14.33
2017-12-04T19:01:53.938Z,14.33
2017-12-04T19:04:21.451Z,15.87
2017-12-04T19:06:48.950Z,13.53
2017-12-04T19:09:16.468Z,14.50
2017-12-04T19:11:43.962Z,15.07
2017-12-04T19:14:11.474Z,15.27
2017-12-04T19:16:39.730Z,12.90
2017-12-04T19:19:07.242Z,13.90
2017-12-04T19:21:34.739Z,12.70
2017-12-04T19:24:02.254Z,13.40
2017-12-04T19:26:29.747Z,12.80
2017-12-04T19:28:57.263Z,21.53
2017-12-04T19:31:24.754Z,13.87
2017-12-04T19:33:52.270Z,13.60
2017-12-04T19:36:19.764Z,13.90
2017-12-04T19:38:47.275Z,13.60
2017-12-04T19:41:15.530Z,13.80
2017-12-04T19:43:43.050Z,15.10
2017-12-04T19:46:10.550Z,14.70
2017-12-04T19:48:38.063Z,15.00
2017-12-04T19:51:05.553Z,15.10
2017-12-04T19:53:33.068Z,16.10
2017-12-04T19:56:00.562Z,14.67
2017-12-04T19:58:28.845Z,16.23
2017-12-04T20:00:57.125Z,16.30
2017-12-04T20:03:24.642Z,15.30
2017-12-04T20:05:52.138Z,15.80
2017-12-04T20:08:19.655Z,15.80
2017-12-04T20:10:47.160Z,14.00
2017-12-04T20:13:14.686Z,15.67
2017-12-04T20:15:42.186Z,14.60
2017-12-04T20:18:09.697Z,15.50
2017-12-04T20:20:37.186Z,16.37
2017-12-04T20:23:04.701Z,15.13
2017-12-04T20:25:32.194Z,14.93
2017-12-04T20:27:59.706Z,15.77
2017-12-04T20:30:27.198Z,14.83
2017-12-04T20:32:54.713Z,14.70
2017-12-04T20:35:22.970Z,16.47
2017-12-04T20:37:50.481Z,27.40
2017-12-04T20:40:17.970Z,15.20
2017-12-04T20:42:45.485Z,14.30
2017-12-04T20:45:12.983Z,14.20
2017-12-04T20:47:40.499Z,14.60
2017-12-04T20:50:07.989Z,14.17
2017-12-04T20:52:35.503Z,14.50
2017-12-04T20:55:02.998Z,14.50
2017-12-04T20:57:30.512Z,15.63
2017-12-04T20:59:58.766Z,14.70
2017-12-04T21:02:26.291Z,14.60
2017-12-04T21:04:53.785Z,15.50
2017-12-04T21:07:21.297Z,14.47
2017-12-04T21:10:00.550Z,14.80
2017-12-04T21:12:28.070Z,13.90
2017-12-04T21:15:07.530Z,14.87
2017-12-04T21:17:35.882Z,15.23
2017-12-04T21:20:03.378Z,13.40
2017-12-04T21:22:30.902Z,14.67
2017-12-04T21:24:58.394Z,13.90
2017-12-04T21:27:25.915Z,13.70
2017-12-04T21:29:53.414Z,13.27
2017-12-04T21:32:20.905Z,14.50
2017-12-04T21:34:49.186Z,14.00
2017-12-04T21:37:16.682Z,16.57
2017-12-04T21:39:44.194Z,13.17
2017-12-04T21:42:11.685Z,14.50
2017-12-04T21:44:39.205Z,13.83
2017-12-04T21:47:06.711Z,13.80
2017-12-04T21:49:34.223Z,13.67
2017-12-04T21:52:01.717Z,15.50
2017-12-04T21:54:29.230Z,14.90
2017-12-04T21:56:56.718Z,15.70
2017-12-04T21:59:24.994Z,16.43
2017-12-04T22:01:53.257Z,16.30
2017-12-04T22:04:21.538Z,16.70
2017-12-04T22:06:49.797Z,16.63
2017-12-04T22:09:17.322Z,17.20
2017-12-04T22:11:44.813Z,17.20
2017-12-04T22:14:12.330Z,17.30
2017-12-04T22:16:39.817Z,18.47
2017-12-04T22:19:07.330Z,15.83
2017-12-04T22:21:34.821Z,17.90
2017-12-04T22:24:02.334Z,17.90
2017-12-04T22:26:30.592Z,16.77
2017-12-04T22:28:58.105Z,17.43
2017-12-04T22:31:25.597Z,16.83
2017-12-04T22:33:53.109Z,16.40
2017-12-04T22:36:20.597Z,17.93
2017-12-04T22:38:48.115Z,16.70
2017-12-04T22:41:15.646Z,17.70
2017-12-04T22:43:43.931Z,17.20
2017-12-04T22:46:12.194Z,17.30
2017-12-04T22:48:39.711Z,16.40
2017-12-04T22:51:07.210Z,16.87
2017-12-04T22:53:34.722Z,17.20
2017-12-04T22:56:02.213Z,17.93
2017-12-04T22:58:29.725Z,15.80
2017-12-04T23:00:57.222Z,18.13
2017-12-04T23:03:24.742Z,16.43
2017-12-04T23:05:52.237Z,16.10
2017-12-04T23:08:19.751Z,15.37
2017-12-04T23:10:47.241Z,16.40
2017-12-04T23:13:14.752Z,14.50
2017-12-04T23:15:42.257Z,15.37
2017-12-04T23:18:09.766Z,16.13
2017-12-04T23:20:37.254Z,16.30
2017-12-04T23:23:04.765Z,15.43
2017-12-04T23:25:32.316Z,16.30
2017-12-04T23:27:59.794Z,16.17
2017-12-04T23:30:28.083Z,15.93
2017-12-04T23:32:55.601Z,16.97
2017-12-04T23:35:23.094Z,15.73
2017-12-04T23:37:51.374Z,16.53
2017-12-04T23:40:19.625Z,15.97
2017-12-04T23:42:47.143Z,15.80
2017-12-04T23:45:14.634Z,15.83
2017-12-04T23:47:42.145Z,16.80
2017-12-04T23:50:09.637Z,17.10
2017-12-04T23:52:37.149Z,15.97
2017-12-04T23:55:04.650Z,16.17
2017-12-04T23:57:32.162Z,16.33
2017-12-04T23:59:59.650Z,16.53
